createdAt,value
2018-05-19T00:00:10.926Z,98148.23
2018-05-19T00:01:49.476Z,98149.52
2018-05-19T00:03:27.321Z,98107.95
2018-05-19T00:06:44.502Z,98178.35
2018-05-19T00:08:25.106Z,98173.53
2018-05-19T00:10:03.757Z,98111.33
2018-05-19T00:11:41.560Z,98100.52
2018-05-19T00:13:19.167Z,98148.69
2018-05-19T00:14:57.288Z,98198.57
2018-05-19T00:16:35.394Z,98195.98
2018-05-19T00:18:13.037Z,98235.77
2018-05-19T00:19:51.477Z,98261.13
2018-05-19T00:21:29.325Z,98287.88
2018-05-19T00:23:07.843Z,98249.33
2018-05-19T00:24:45.461Z,98228.33
2018-05-19T00:26:23.192Z,98241.45
2018-05-19T00:28:02.282Z,98272.03
2018-05-19T00:29:41.070Z,98256.74
2018-05-19T00:31:20.617Z,98243.22
2018-05-19T00:33:00.452Z,98204.73
2018-05-19T00:34:45.464Z,98199.52
2018-05-19T00:36:23.287Z,98258.11
2018-05-19T00:38:00.934Z,98275.17
2018-05-19T00:39:38.545Z,98255.48
2018-05-19T00:41:16.625Z,98182.86
2018-05-19T00:42:55.209Z,98181.09
2018-05-19T00:44:32.890Z,98182.50
2018-05-19T00:46:10.825Z,98161.39
2018-05-19T00:47:50.821Z,98136.55
2018-05-19T00:49:28.793Z,98095.30
2018-05-19T00:51:06.818Z,98074.39
2018-05-19T00:52:44.480Z,98035.11
2018-05-19T00:54:23.482Z,97975.65
2018-05-19T00:56:01.210Z,97933.34
2018-05-19T00:57:39.001Z,98010.22
2018-05-19T00:59:16.620Z,98018.91
2018-05-19T01:00:55.231Z,98065.30
2018-05-19T01:02:32.840Z,98097.58
2018-05-19T01:04:11.273Z,98168.95
2018-05-19T01:05:52.243Z,98133.53
2018-05-19T01:07:32.001Z,98123.00
2018-05-19T01:09:09.721Z,98109.88
2018-05-19T01:10:47.487Z,98133.10
2018-05-19T01:12:25.574Z,98135.72
2018-05-19T01:14:03.311Z,98096.75
2018-05-19T01:15:41.404Z,98032.88
2018-05-19T01:17:19.133Z,98029.44
2018-05-19T01:18:57.185Z,97976.16
2018-05-19T01:20:34.958Z,97953.89
2018-05-19T01:22:13.323Z,97905.37
2018-05-19T01:23:51.697Z,97868.22
2018-05-19T01:25:29.809Z,97886.25
2018-05-19T01:27:07.383Z,97922.00
2018-05-19T01:28:44.988Z,97908.42
2018-05-19T01:30:22.992Z,97843.42
2018-05-19T01:32:01.079Z,97832.55
2018-05-19T01:33:39.928Z,97815.11
2018-05-19T01:35:17.776Z,97815.89
2018-05-19T01:36:55.417Z,97850.03
2018-05-19T01:38:33.571Z,97872.70
2018-05-19T01:40:11.269Z,97884.91
2018-05-19T01:41:48.859Z,97894.46
2018-05-19T01:43:27.036Z,97908.94
2018-05-19T01:45:08.725Z,97922.00
2018-05-19T01:46:46.541Z,97952.13
2018-05-19T01:48:24.113Z,97958.31
2018-05-19T01:50:02.528Z,97963.55
2018-05-19T01:51:41.311Z,97951.70
2018-05-19T01:53:19.670Z,97940.78
2018-05-19T01:54:57.834Z,97932.14
2018-05-19T01:56:36.249Z,97938.23
2018-05-19T01:58:15.132Z,97871.78
2018-05-19T01:59:52.979Z,97885.34
2018-05-19T02:01:31.096Z,97904.13
2018-05-19T02:03:08.640Z,97925.09
2018-05-19T02:04:47.535Z,97955.34
2018-05-19T02:06:25.196Z,97972.33
2018-05-19T02:08:03.017Z,97981.52
2018-05-19T02:09:40.730Z,97992.88
2018-05-19T02:11:20.631Z,97994.64
2018-05-19T02:13:01.888Z,97961.41
2018-05-19T02:14:40.378Z,97974.01
2018-05-19T02:16:18.653Z,98015.58
2018-05-19T02:17:56.561Z,98018.67
2018-05-19T02:19:34.238Z,97960.63
2018-05-19T02:21:11.825Z,97937.81
2018-05-19T02:22:49.943Z,97919.06
2018-05-19T02:24:27.989Z,97898.56
2018-05-19T02:26:06.441Z,97937.93
2018-05-19T02:27:44.152Z,97964.50
2018-05-19T02:29:21.795Z,97982.85
2018-05-19T02:31:00.220Z,98004.70
2018-05-19T02:32:38.455Z,98032.69
2018-05-19T02:34:16.591Z,98064.20
2018-05-19T02:35:56.560Z,98080.84
2018-05-19T02:37:34.332Z,98083.90
2018-05-19T02:39:12.686Z,98068.59
2018-05-19T02:40:55.454Z,98034.87
2018-05-19T02:42:33.161Z,98055.47
2018-05-19T02:44:11.194Z,98086.95
2018-05-19T02:45:49.161Z,98109.36
2018-05-19T02:47:26.694Z,98031.44
2018-05-19T02:49:04.283Z,97999.49
2018-05-19T02:50:42.524Z,97969.86
2018-05-19T02:52:20.954Z,97953.73
2018-05-19T02:54:00.904Z,97991.70
2018-05-19T02:55:39.480Z,98023.20
2018-05-19T02:57:18.198Z,97990.37
2018-05-19T02:58:57.311Z,98003.59
2018-05-19T03:00:35.239Z,97944.58
2018-05-19T03:02:15.222Z,97954.64
2018-05-19T03:03:54.754Z,97949.35
2018-05-19T03:05:33.182Z,97938.40
2018-05-19T03:07:10.899Z,97954.17
2018-05-19T03:08:48.561Z,97976.95
2018-05-19T03:10:26.481Z,97933.66
2018-05-19T03:12:04.155Z,97912.73
2018-05-19T03:13:42.734Z,97930.27
2018-05-19T03:15:20.651Z,97940.63
2018-05-19T03:16:58.961Z,97966.89
2018-05-19T03:18:37.307Z,97967.36
2018-05-19T03:20:14.943Z,98008.02
2018-05-19T03:21:53.071Z,98059.50
2018-05-19T03:23:31.428Z,98116.02
2018-05-19T03:25:10.299Z,98158.41
2018-05-19T03:26:48.421Z,98160.64
2018-05-19T03:28:27.243Z,98203.46
2018-05-19T03:30:06.824Z,98229.77
2018-05-19T03:31:45.165Z,98267.78
2018-05-19T03:33:23.596Z,98308.92
2018-05-19T03:35:02.527Z,98294.45
2018-05-19T03:36:40.073Z,98307.73
2018-05-19T03:38:17.700Z,98299.81
2018-05-19T03:39:56.144Z,98287.04
2018-05-19T03:41:34.290Z,98335.74
2018-05-19T03:43:11.950Z,98352.45
2018-05-19T03:44:52.695Z,98354.17
2018-05-19T03:46:37.238Z,98355.83
2018-05-19T03:48:15.845Z,98298.56
2018-05-19T03:49:54.846Z,98343.62
2018-05-19T03:51:32.777Z,98372.65
2018-05-19T03:53:10.545Z,98369.98
2018-05-19T03:54:48.708Z,98394.50
2018-05-19T03:56:26.280Z,98418.13
2018-05-19T04:02:23.192Z,98385.25
2018-05-19T04:04:00.818Z,98172.16
2018-05-19T04:05:38.871Z,98116.13
2018-05-19T04:07:16.487Z,98098.59
2018-05-19T04:08:54.181Z,98122.71
2018-05-19T04:10:32.042Z,98159.89
2018-05-19T04:12:10.147Z,98145.00
2018-05-19T04:13:47.745Z,98099.05
2018-05-19T04:15:25.892Z,98059.70
2018-05-19T04:17:03.472Z,98070.20
2018-05-19T04:18:41.672Z,98078.97
2018-05-19T04:20:19.245Z,98110.53
2018-05-19T04:21:57.609Z,98147.23
2018-05-19T04:23:35.275Z,98208.05
2018-05-19T04:25:14.288Z,98218.94
2018-05-19T04:26:51.982Z,98251.36
2018-05-19T04:28:29.714Z,98292.52
2018-05-19T04:30:08.762Z,98329.30
2018-05-19T04:31:46.973Z,98345.14
2018-05-19T04:33:24.513Z,98374.48
2018-05-19T04:35:02.282Z,98388.53
2018-05-19T04:36:39.990Z,98388.02
2018-05-19T04:38:18.466Z,98413.91
2018-05-19T04:39:56.832Z,98489.67
2018-05-19T04:41:35.271Z,98500.66
2018-05-19T04:43:12.901Z,98477.34
2018-05-19T04:44:50.868Z,98490.25
2018-05-19T04:46:28.702Z,98416.58
2018-05-19T04:48:07.129Z,98348.60
2018-05-19T04:49:44.628Z,98247.94
2018-05-19T04:51:22.776Z,98211.11
2018-05-19T04:53:01.102Z,98177.13
2018-05-19T04:54:39.490Z,98195.94
2018-05-19T04:56:18.951Z,98207.26
2018-05-19T04:57:57.541Z,98185.83
2018-05-19T04:59:35.180Z,98145.12
2018-05-19T05:01:13.169Z,98111.55
2018-05-19T05:02:51.276Z,98138.61
2018-05-19T05:04:30.012Z,98153.46
2018-05-19T05:06:07.637Z,98200.33
2018-05-19T05:07:45.207Z,98243.62
2018-05-19T05:09:22.729Z,98237.98
2018-05-19T05:11:00.899Z,98209.10
2018-05-19T05:12:39.466Z,98233.13
2018-05-19T05:14:17.648Z,98245.31
2018-05-19T05:15:55.646Z,98279.18
2018-05-19T05:17:33.566Z,98262.91
2018-05-19T05:19:11.918Z,98342.20
2018-05-19T05:20:49.509Z,98358.00
2018-05-19T05:22:27.111Z,98346.67
2018-05-19T05:24:05.811Z,98363.66
2018-05-19T05:25:43.424Z,98310.74
2018-05-19T05:27:21.027Z,98384.69
2018-05-19T05:28:58.605Z,98392.64
2018-05-19T05:30:37.435Z,98412.30
2018-05-19T05:32:15.908Z,98432.51
2018-05-19T05:33:54.124Z,98431.57
2018-05-19T05:35:31.660Z,98427.28
2018-05-19T05:37:10.488Z,98470.08
2018-05-19T05:38:48.791Z,98579.34
2018-05-19T05:40:26.409Z,98569.64
2018-05-19T05:42:04.822Z,98564.41
2018-05-19T05:43:42.804Z,98624.88
2018-05-19T05:45:22.069Z,98616.11
2018-05-19T05:46:59.617Z,98623.61
2018-05-19T05:48:37.986Z,98641.56
2018-05-19T05:50:17.348Z,98616.11
2018-05-19T05:51:55.232Z,98558.69
2018-05-19T05:53:33.817Z,98533.70
2018-05-19T05:55:11.449Z,98535.08
2018-05-19T05:56:49.482Z,98462.30
2018-05-19T05:58:28.041Z,98403.16
2018-05-19T06:00:08.850Z,98383.50
2018-05-19T06:01:47.148Z,98353.72
2018-05-19T06:03:25.537Z,98393.08
2018-05-19T06:05:04.103Z,98475.05
2018-05-19T06:06:41.820Z,98592.14
2018-05-19T06:08:19.508Z,98703.57
2018-05-19T06:09:57.644Z,98794.86
2018-05-19T06:11:35.264Z,98858.08
2018-05-19T06:13:12.957Z,98811.07
2018-05-19T06:14:50.581Z,98914.88
2018-05-19T06:16:28.945Z,99014.13
2018-05-19T06:18:08.249Z,99031.34
2018-05-19T06:19:45.974Z,99067.27
2018-05-19T06:21:25.446Z,98995.67
2018-05-19T06:23:03.498Z,98912.64
2018-05-19T06:24:44.067Z,98921.02
2018-05-19T06:26:21.652Z,98858.11
2018-05-19T06:28:00.604Z,98777.39
2018-05-19T06:29:38.649Z,98884.14
2018-05-19T06:31:17.023Z,98941.28
2018-05-19T06:32:54.575Z,98972.50
2018-05-19T06:34:32.901Z,98965.42
2018-05-19T06:36:11.191Z,98858.58
2018-05-19T06:37:48.981Z,98927.27
2018-05-19T06:39:26.942Z,98896.03
2018-05-19T06:41:06.245Z,98829.26
2018-05-19T06:42:44.549Z,98842.01
2018-05-19T06:44:22.126Z,98753.28
2018-05-19T06:46:01.428Z,98835.84
2018-05-19T06:47:39.022Z,98765.63
2018-05-19T06:49:17.818Z,98796.34
2018-05-19T06:50:55.473Z,98933.77
2018-05-19T06:52:33.257Z,99012.14
2018-05-19T06:54:10.897Z,98803.34
2018-05-19T06:55:49.024Z,98864.83
2018-05-19T06:57:26.620Z,99036.31
2018-05-19T06:59:04.337Z,99044.23
2018-05-19T07:00:43.641Z,99138.34
2018-05-19T07:02:22.508Z,99176.22
2018-05-19T07:04:00.180Z,99268.70
2018-05-19T07:07:14.721Z,99411.45
2018-05-19T07:08:52.543Z,99329.05
2018-05-19T07:10:32.450Z,99233.06
2018-05-19T07:12:10.977Z,99218.05
2018-05-19T07:13:55.076Z,99160.84
2018-05-19T07:17:18.134Z,99141.86
2018-05-19T07:18:58.336Z,99177.99
2018-05-19T07:20:36.288Z,99274.42
2018-05-19T07:22:13.859Z,99255.97
2018-05-19T07:23:54.219Z,99274.45
2018-05-19T07:25:33.313Z,99293.46
2018-05-19T07:27:11.304Z,99092.28
2018-05-19T07:28:50.359Z,99048.31
2018-05-19T07:30:30.933Z,99194.88
2018-05-19T07:32:11.501Z,99243.19
2018-05-19T07:33:49.094Z,99083.86
2018-05-19T07:35:26.750Z,99202.33
2018-05-19T07:37:05.102Z,99206.71
2018-05-19T07:38:42.709Z,99419.05
2018-05-19T07:40:21.112Z,99576.11
2018-05-19T07:41:58.772Z,99534.57
2018-05-19T07:43:37.232Z,99440.20
2018-05-19T07:45:17.197Z,99368.37
2018-05-19T07:46:56.524Z,99268.34
2018-05-19T07:48:39.588Z,99328.31
2018-05-19T07:50:17.736Z,99449.00
2018-05-19T07:51:55.326Z,99525.77
2018-05-19T07:53:33.457Z,99604.27
2018-05-19T07:55:11.766Z,99627.28
2018-05-19T07:56:50.119Z,99681.55
2018-05-19T07:58:28.477Z,99515.68
2018-05-19T08:00:09.898Z,99490.22
2018-05-19T08:01:47.640Z,99633.08
2018-05-19T08:03:29.649Z,99690.88
2018-05-19T08:05:08.271Z,99730.61
2018-05-19T08:06:49.213Z,99766.36
2018-05-19T08:08:28.465Z,99843.26
2018-05-19T08:10:06.827Z,99862.69
2018-05-19T08:11:44.544Z,99819.38
2018-05-19T08:13:22.955Z,99731.11
2018-05-19T08:15:00.676Z,99772.59
2018-05-19T08:16:39.053Z,99840.23
2018-05-19T08:18:17.615Z,99825.14
2018-05-19T08:19:57.148Z,99531.62
2018-05-19T08:21:36.553Z,99422.26
2018-05-19T08:23:15.153Z,99340.77
2018-05-19T08:24:52.737Z,99416.53
2018-05-19T08:26:30.416Z,99561.64
2018-05-19T08:28:07.952Z,99897.22
2018-05-19T08:29:45.607Z,100038.77
2018-05-19T08:31:24.894Z,100078.19
2018-05-19T08:33:02.576Z,100089.20
2018-05-19T08:34:41.379Z,100113.16
2018-05-19T08:36:19.333Z,100047.67
2018-05-19T08:37:58.082Z,99995.00
2018-05-19T08:39:36.484Z,99934.73
2018-05-19T08:41:15.790Z,99889.77
2018-05-19T08:42:54.284Z,99933.95
2018-05-19T08:44:33.202Z,99963.63
2018-05-19T08:46:11.966Z,99948.52
2018-05-19T08:47:50.988Z,99923.77
2018-05-19T08:49:30.724Z,99891.89
2018-05-19T08:51:09.609Z,99879.57
2018-05-19T08:52:47.962Z,99935.70
2018-05-19T08:54:25.660Z,99921.12
2018-05-19T08:56:03.305Z,99974.61
2018-05-19T08:57:42.279Z,100017.09
2018-05-19T08:59:20.609Z,100051.64
2018-05-19T09:00:58.747Z,99987.41
2018-05-19T09:02:36.455Z,99994.56
2018-05-19T09:04:16.577Z,100005.17
2018-05-19T09:05:54.179Z,99999.37
2018-05-19T09:07:32.039Z,100111.79
2018-05-19T09:09:09.825Z,100260.14
2018-05-19T09:10:47.418Z,100317.30
2018-05-19T09:12:27.816Z,100306.20
2018-05-19T09:14:05.621Z,100268.55
2018-05-19T09:15:52.561Z,100336.34
2018-05-19T09:17:31.170Z,100330.56
2018-05-19T09:19:09.864Z,100145.87
2018-05-19T09:20:47.471Z,99991.88
2018-05-19T09:22:26.896Z,99970.65
2018-05-19T09:24:04.562Z,100085.36
2018-05-19T09:25:42.207Z,100406.05
2018-05-19T09:27:19.757Z,100439.28
2018-05-19T09:28:57.829Z,100618.05
2018-05-19T09:30:36.864Z,100741.58
2018-05-19T09:32:16.054Z,100759.88
2018-05-19T09:33:54.574Z,100554.17
2018-05-19T09:35:32.911Z,100362.52
2018-05-19T09:37:11.913Z,100199.06
2018-05-19T09:38:50.392Z,100166.77
2018-05-19T09:40:27.945Z,100186.59
2018-05-19T09:42:05.966Z,100198.15
2018-05-19T09:43:43.552Z,100273.02
2018-05-19T09:45:21.605Z,100269.95
2018-05-19T09:47:02.118Z,100181.27
2018-05-19T09:48:40.129Z,100164.46
2018-05-19T09:50:17.756Z,100127.34
2018-05-19T09:51:56.092Z,100086.98
2018-05-19T09:53:33.681Z,100183.52
2018-05-19T09:55:11.929Z,100236.72
2018-05-19T09:56:50.313Z,100276.52
2018-05-19T09:58:29.775Z,100388.21
2018-05-19T10:00:08.134Z,100536.01
2018-05-19T10:01:46.775Z,100528.81
2018-05-19T10:03:24.261Z,100518.66
2018-05-19T10:05:01.877Z,100536.77
2018-05-19T10:06:39.489Z,100554.15
2018-05-19T10:08:17.458Z,100516.85
2018-05-19T10:09:55.040Z,100430.77
2018-05-19T10:11:32.694Z,100429.45
2018-05-19T10:13:11.142Z,100422.77
2018-05-19T10:14:49.182Z,100398.83
2018-05-19T10:16:27.288Z,100367.78
2018-05-19T10:18:04.943Z,100389.47
2018-05-19T10:19:42.528Z,100409.43
2018-05-19T10:21:20.447Z,100249.01
2018-05-19T10:22:57.988Z,100163.56
2018-05-19T10:24:41.471Z,100124.56
2018-05-19T10:26:22.266Z,100118.41
2018-05-19T10:28:01.103Z,100128.56
2018-05-19T10:29:38.824Z,100080.74
2018-05-19T10:31:18.097Z,100121.06
2018-05-19T10:32:56.248Z,100152.91
2018-05-19T10:34:34.330Z,100055.98
2018-05-19T10:36:12.045Z,100140.09
2018-05-19T10:37:49.678Z,100186.59
2018-05-19T10:39:27.340Z,100386.34
2018-05-19T10:41:05.277Z,100420.98
2018-05-19T10:42:43.691Z,100508.75
2018-05-19T10:44:22.084Z,100511.91
2018-05-19T10:46:00.277Z,100492.44
2018-05-19T10:47:37.970Z,100554.47
2018-05-19T10:49:16.354Z,100578.89
2018-05-19T10:50:54.152Z,100651.70
2018-05-19T10:52:31.790Z,100728.14
2018-05-19T10:54:09.957Z,100724.09
2018-05-19T10:55:48.559Z,100709.44
2018-05-19T10:57:27.117Z,100737.48
2018-05-19T10:59:04.702Z,100712.59
2018-05-19T11:00:43.225Z,100696.63
2018-05-19T11:02:21.748Z,100582.91
2018-05-19T11:04:00.069Z,100505.21
2018-05-19T11:05:37.724Z,100392.13
2018-05-19T11:07:15.865Z,100471.99
2018-05-19T11:08:54.355Z,100585.63
2018-05-19T11:10:33.670Z,100645.97
2018-05-19T11:12:11.223Z,100770.38
2018-05-19T11:13:49.260Z,100764.11
2018-05-19T11:15:28.741Z,100677.87
2018-05-19T11:17:06.337Z,100549.23
2018-05-19T11:18:43.879Z,100457.70
2018-05-19T11:20:22.674Z,100469.25
2018-05-19T11:22:00.231Z,100492.78
2018-05-19T11:23:37.836Z,100530.95
2018-05-19T11:25:16.456Z,100605.49
2018-05-19T11:26:54.461Z,100630.80
2018-05-19T11:28:32.063Z,100435.06
2018-05-19T11:30:09.699Z,100413.81
2018-05-19T11:31:47.572Z,100371.61
2018-05-19T11:33:25.689Z,100313.96
2018-05-19T11:35:04.200Z,100251.45
2018-05-19T11:36:42.457Z,100148.75
2018-05-19T11:38:20.130Z,100202.38
2018-05-19T11:39:58.153Z,100209.50
2018-05-19T11:41:36.302Z,100153.63
2018-05-19T11:43:14.713Z,100149.66
2018-05-19T11:44:53.110Z,100196.59
2018-05-19T11:46:32.762Z,100213.84
2018-05-19T11:48:10.439Z,100317.97
2018-05-19T11:49:48.005Z,100397.77
2018-05-19T11:51:25.716Z,100553.06
2018-05-19T11:53:03.924Z,100644.03
2018-05-19T11:54:41.502Z,100724.05
2018-05-19T11:56:20.007Z,100816.84
2018-05-19T11:57:57.958Z,100921.70
2018-05-19T11:59:36.882Z,100903.52
2018-05-19T12:01:17.949Z,100874.57
2018-05-19T12:02:55.528Z,100680.48
2018-05-19T12:04:33.205Z,100455.41
2018-05-19T12:06:11.224Z,100497.58
2018-05-19T12:07:49.646Z,100626.27
2018-05-19T12:09:27.193Z,100793.76
2018-05-19T12:11:04.806Z,100795.08
2018-05-19T12:12:43.136Z,100792.87
2018-05-19T12:14:21.597Z,100819.52
2018-05-19T12:17:44.481Z,100855.91
2018-05-19T12:19:20.822Z,100848.37
2018-05-19T12:20:57.333Z,100780.31
2018-05-19T12:22:35.661Z,100746.63
2018-05-19T12:24:12.069Z,100757.26
2018-05-19T12:25:48.384Z,100650.19
2018-05-19T12:27:25.038Z,100783.53
2018-05-19T12:29:02.047Z,100842.16
2018-05-19T12:30:38.756Z,100885.21
2018-05-19T12:34:05.501Z,100906.11
2018-05-19T12:35:43.082Z,100930.56
2018-05-19T12:37:20.693Z,100995.95
2018-05-19T12:39:08.052Z,101040.91
2018-05-19T12:40:51.549Z,101003.08
2018-05-19T12:42:28.878Z,100909.22
2018-05-19T12:44:05.215Z,100702.12
2018-05-19T12:45:41.955Z,100620.39
2018-05-19T12:47:18.911Z,100623.06
2018-05-19T12:48:56.429Z,100615.48
2018-05-19T12:50:33.556Z,100594.20
2018-05-19T12:52:09.979Z,100562.22
2018-05-19T12:53:46.948Z,100541.77
2018-05-19T12:55:23.546Z,100482.72
2018-05-19T12:57:01.213Z,100429.98
2018-05-19T12:58:38.243Z,100218.10
2018-05-19T13:00:16.370Z,100112.33
2018-05-19T13:01:53.733Z,100177.81
2018-05-19T13:03:30.161Z,100188.91
2018-05-19T13:05:06.745Z,100082.62
2018-05-19T13:06:43.652Z,100079.06
2018-05-19T13:08:20.654Z,100090.62
2018-05-19T13:09:57.048Z,100138.79
2018-05-19T13:11:33.655Z,100159.19
2018-05-19T13:13:10.854Z,100171.54
2018-05-19T13:14:48.069Z,100425.48
2018-05-19T13:16:25.142Z,100601.58
2018-05-19T13:18:02.872Z,100736.64
2018-05-19T13:19:39.170Z,100798.81
2018-05-19T13:21:36.740Z,100886.83
2018-05-19T13:23:15.445Z,100961.09
2018-05-19T13:24:57.942Z,100951.24
2018-05-19T13:26:34.289Z,100957.57
2018-05-19T13:28:10.792Z,100915.70
2018-05-19T13:29:47.486Z,100893.08
2018-05-19T13:31:24.278Z,100814.83
2018-05-19T13:33:00.831Z,100892.20
2018-05-19T13:34:37.152Z,100925.00
2018-05-19T13:36:14.986Z,100996.25
2018-05-19T13:37:51.227Z,100983.78
2018-05-19T13:39:28.419Z,100930.86
2018-05-19T13:41:05.092Z,100917.50
2018-05-19T13:42:45.354Z,100981.95
2018-05-19T13:44:21.990Z,101047.82
2018-05-19T13:45:59.520Z,101111.47
2018-05-19T13:47:35.924Z,101166.73
2018-05-19T13:49:14.235Z,101254.89
2018-05-19T13:50:50.805Z,101341.36
2018-05-19T13:52:40.101Z,101374.39
2018-05-19T13:54:22.342Z,101408.29
2018-05-19T13:55:59.457Z,101367.69
2018-05-19T13:57:35.850Z,101382.83
2018-05-19T13:59:12.212Z,101381.06
2018-05-19T14:00:49.244Z,101344.50
2018-05-19T14:02:26.373Z,101263.33
2018-05-19T14:04:02.779Z,101233.07
2018-05-19T14:05:39.878Z,101239.30
2018-05-19T14:07:17.459Z,101161.76
2018-05-19T14:08:53.842Z,101168.02
2018-05-19T14:10:30.128Z,101114.97
2018-05-19T14:12:06.539Z,101001.51
2018-05-19T14:13:43.121Z,100971.22
2018-05-19T14:15:20.208Z,100988.96
2018-05-19T14:16:56.681Z,101020.55
2018-05-19T14:18:33.388Z,101055.31
2018-05-19T14:20:10.908Z,101047.72
2018-05-19T14:21:47.289Z,101036.63
2018-05-19T14:23:23.699Z,101038.41
2018-05-19T14:25:00.510Z,101040.61
2018-05-19T14:26:37.553Z,100956.09
2018-05-19T14:28:13.965Z,100982.71
2018-05-19T14:29:53.184Z,100983.54
2018-05-19T14:31:31.700Z,100966.23
2018-05-19T14:33:08.934Z,100978.25
2018-05-19T14:34:45.230Z,100944.01
2018-05-19T14:36:22.419Z,100907.53
2018-05-19T14:37:59.978Z,100874.65
2018-05-19T14:39:36.557Z,100624.03
2018-05-19T14:41:12.941Z,100712.03
2018-05-19T14:42:50.038Z,100918.65
2018-05-19T14:44:26.849Z,101024.05
2018-05-19T14:46:03.583Z,100965.33
2018-05-19T14:47:39.859Z,100894.06
2018-05-19T14:49:16.873Z,100887.05
2018-05-19T14:50:54.734Z,100960.88
2018-05-19T14:52:32.910Z,101073.02
2018-05-19T14:55:42.315Z,101116.19
2018-05-19T14:57:19.409Z,101212.91
2018-05-19T14:58:56.632Z,101313.97
2018-05-19T15:00:33.262Z,101370.19
2018-05-19T15:02:09.556Z,101367.06
2018-05-19T15:03:46.290Z,101295.23
2018-05-19T15:05:23.329Z,101113.48
2018-05-19T15:06:59.678Z,100896.78
2018-05-19T15:08:35.988Z,100805.70
2018-05-19T15:10:12.767Z,100927.03
2018-05-19T15:11:49.772Z,100989.34
2018-05-19T15:13:26.072Z,101066.27
2018-05-19T15:15:02.411Z,101060.99
2018-05-19T15:16:39.504Z,101134.45
2018-05-19T15:18:15.835Z,101174.52
2018-05-19T15:19:52.115Z,101272.95
2018-05-19T15:21:28.516Z,101335.34
2018-05-19T15:23:06.053Z,101426.75
2018-05-19T15:24:42.330Z,101493.27
2018-05-19T15:26:18.717Z,101384.38
2018-05-19T15:27:55.081Z,101383.52
2018-05-19T15:29:31.523Z,101317.01
2018-05-19T15:31:08.206Z,101249.76
2018-05-19T15:32:45.430Z,101251.47
2018-05-19T15:34:21.723Z,101263.53
2018-05-19T15:35:59.330Z,101218.02
2018-05-19T15:37:35.631Z,101141.94
2018-05-19T15:39:12.766Z,101126.73
2018-05-19T15:40:49.023Z,101153.94
2018-05-19T15:42:25.788Z,101170.80
2018-05-19T15:44:02.078Z,101371.88
2018-05-19T15:45:38.711Z,101407.09
2018-05-19T15:47:15.017Z,101413.73
2018-05-19T15:48:52.537Z,101373.15
2018-05-19T15:50:29.789Z,101370.50
2018-05-19T15:52:06.127Z,101312.95
2018-05-19T15:53:42.390Z,101136.07
2018-05-19T15:55:18.937Z,101141.02
2018-05-19T15:56:55.219Z,101185.98
2018-05-19T15:58:31.525Z,101310.75
2018-05-19T16:00:08.731Z,101370.01
2018-05-19T16:01:45.859Z,101213.03
2018-05-19T16:03:22.440Z,101181.48
2018-05-19T16:04:59.584Z,100982.00
2018-05-19T16:06:35.881Z,100786.37
2018-05-19T16:08:13.207Z,100817.02
2018-05-19T16:09:49.566Z,101005.55
2018-05-19T16:11:25.875Z,101093.25
2018-05-19T16:13:02.199Z,101166.72
2018-05-19T16:14:38.785Z,101171.57
2018-05-19T16:16:15.333Z,101138.13
2018-05-19T16:17:51.648Z,101131.47
2018-05-19T16:19:28.626Z,101132.77
2018-05-19T16:21:06.009Z,101123.02
2018-05-19T16:22:42.285Z,101135.91
2018-05-19T16:24:19.833Z,101230.36
2018-05-19T16:25:56.114Z,101261.55
2018-05-19T16:27:32.635Z,101302.53
2018-05-19T16:29:09.106Z,101252.18
2018-05-19T16:30:45.649Z,101243.73
2018-05-19T16:32:21.928Z,101250.36
2018-05-19T16:33:58.729Z,101233.89
2018-05-19T16:35:35.826Z,101341.28
2018-05-19T16:37:12.938Z,101404.23
2018-05-19T16:38:49.228Z,101398.83
2018-05-19T16:40:25.526Z,101397.06
2018-05-19T16:42:02.554Z,101229.86
2018-05-19T16:43:38.867Z,101220.47
2018-05-19T16:45:17.486Z,101294.87
2018-05-19T16:46:53.941Z,101298.85
2018-05-19T16:48:31.320Z,101303.81
2018-05-19T16:50:08.058Z,101307.78
2018-05-19T16:53:25.821Z,101297.99
2018-05-19T16:55:02.185Z,101273.44
2018-05-19T16:56:38.531Z,101273.47
2018-05-19T16:58:15.316Z,101244.94
2018-05-19T16:59:52.441Z,101301.55
2018-05-19T17:01:28.989Z,101334.03
2018-05-19T17:03:05.330Z,101333.59
2018-05-19T17:04:42.936Z,101375.09
2018-05-19T17:06:19.338Z,101420.19
2018-05-19T17:07:55.774Z,101444.27
2018-05-19T17:09:32.369Z,101469.19
2018-05-19T17:11:09.385Z,101474.13
2018-05-19T17:12:51.716Z,101434.36
2018-05-19T17:14:29.263Z,101408.10
2018-05-19T17:16:06.171Z,101438.42
2018-05-19T17:17:42.886Z,101417.02
2018-05-19T17:19:19.248Z,101390.23
2018-05-19T17:20:55.750Z,101344.24
2018-05-19T17:22:32.337Z,101275.55
2018-05-19T17:24:08.748Z,101071.12
2018-05-19T17:25:45.751Z,101009.77
2018-05-19T17:27:22.091Z,100992.78
2018-05-19T17:28:58.472Z,101003.93
2018-05-19T17:30:35.985Z,101036.34
2018-05-19T17:32:13.414Z,101056.45
2018-05-19T17:33:50.872Z,101013.64
2018-05-19T17:35:27.291Z,101024.33
2018-05-19T17:37:03.965Z,101040.37
2018-05-19T17:38:41.112Z,101100.88
2018-05-19T17:40:17.569Z,101130.75
2018-05-19T17:41:53.999Z,101124.45
2018-05-19T17:43:31.052Z,101098.62
2018-05-19T17:45:07.527Z,101146.23
2018-05-19T17:46:44.119Z,101220.72
2018-05-19T17:48:20.669Z,101259.91
2018-05-19T17:49:57.474Z,101268.34
2018-05-19T17:51:33.846Z,101265.70
2018-05-19T17:53:11.808Z,101242.48
2018-05-19T17:54:49.040Z,101212.20
2018-05-19T17:56:29.567Z,101190.28
2018-05-19T17:58:06.563Z,101188.07
2018-05-19T17:59:46.786Z,101175.63
2018-05-19T18:01:32.837Z,101198.34
2018-05-19T18:03:20.003Z,101196.97
2018-05-19T18:04:56.699Z,101183.17
2018-05-19T18:06:32.975Z,101191.66
2018-05-19T18:08:09.760Z,101158.27
2018-05-19T18:09:46.149Z,101072.77
2018-05-19T18:11:22.538Z,101037.17
2018-05-19T18:12:59.377Z,100998.39
2018-05-19T18:14:37.087Z,101006.41
2018-05-19T18:16:13.867Z,101045.59
2018-05-19T18:17:51.348Z,101061.17
2018-05-19T18:19:27.925Z,101030.41
2018-05-19T18:21:04.643Z,100966.75
2018-05-19T18:22:47.403Z,100982.37
2018-05-19T18:24:23.768Z,101001.03
2018-05-19T18:26:00.254Z,101033.98
2018-05-19T18:27:37.040Z,101075.33
2018-05-19T18:29:13.635Z,101106.52
2018-05-19T18:30:52.424Z,101112.28
2018-05-19T18:32:31.129Z,101156.36
2018-05-19T18:34:09.452Z,101162.59
2018-05-19T18:35:46.338Z,101071.77
2018-05-19T18:37:22.837Z,101054.88
2018-05-19T18:39:42.551Z,100962.73
2018-05-19T18:41:19.051Z,100921.76
2018-05-19T18:42:56.954Z,100902.23
2018-05-19T18:44:33.472Z,100862.19
2018-05-19T18:46:10.712Z,100844.40
2018-05-19T18:47:47.324Z,100823.03
2018-05-19T18:49:23.755Z,100784.80
2018-05-19T18:51:00.740Z,100771.47
2018-05-19T18:52:38.293Z,100755.94
2018-05-19T18:54:14.776Z,100783.07
2018-05-19T18:55:52.721Z,100806.16
2018-05-19T18:57:29.168Z,100743.43
2018-05-19T18:59:07.746Z,100695.88
2018-05-19T19:00:47.566Z,100679.50
2018-05-19T19:02:24.040Z,100692.39
2018-05-19T19:05:36.563Z,100649.29
2018-05-19T19:07:13.068Z,100616.03
2018-05-19T19:08:49.484Z,100561.34
2018-05-19T19:10:29.234Z,100470.36